Stations météo

réclame
Mon MeteoGroup
Kinbrace, Grande-Bretagne (99016): Température de l'air & dewpoint: 20.05.2018 09:00:00 - 26.05.2018 09:00:00 (BST)Kinbrace, Grande-Bretagne (99016): Vitesse du vent & gusts: 20.05.2018 09:00:00 - 26.05.2018 09:00:00 (BST)Kinbrace, Grande-Bretagne (99016): Direction du vent: 20.05.2018 09:00:00 - 26.05.2018 09:00:00 (BST)Kinbrace, Grande-Bretagne (99016): Quantités de précipitations: 20.05.2018 09:00:00 - 26.05.2018 09:00:00 (BST)
Date & Time tt [°C] td [°C] ff [km/h] ff [knt] fx [km/h] fx [knt] dd rr [mm]
26.05.2018 09:00:00 - - - - - - - -
26.05.2018 08:00:00 9,7 7,2 2 1 - - S 0,0
26.05.2018 07:00:00 8,0 7,0 11 6 - - ESE 0,0
26.05.2018 06:00:00 7,1 6,8 4 2 - - SE 0,0
26.05.2018 05:00:00 6,5 6,2 9 5 - - ENE 0,0
26.05.2018 04:00:00 5,6 5,0 4 2 - - SE 0,0
26.05.2018 03:00:00 7,2 6,3 2 1 - - SW 0,0
26.05.2018 02:00:00 7,8 6,5 8 4 - - N 0,0
26.05.2018 01:00:00 8,7 7,6 9 5 - - N 0,0
26.05.2018 00:00:00 9,1 8,0 8 4 - - N 0,0
25.05.2018 23:00:00 9,6 8,2 13 7 - - NNE 0,0
25.05.2018 22:00:00 9,9 8,7 15 8 - - N 0,0
25.05.2018 21:00:00 10,0 8,5 16 9 - - NNW 0,0
25.05.2018 20:00:00 10,5 8,7 16 9 - - NNW 0,0
25.05.2018 19:00:00 11,5 9,0 21 11 - - N 0,0
25.05.2018 18:00:00 13,1 9,5 22 12 - - NNW 0,0
25.05.2018 17:00:00 14,1 9,6 22 12 - - N 0,0
25.05.2018 16:00:00 13,4 9,1 21 11 - - N 0,0
25.05.2018 15:00:00 15,6 10,3 22 12 - - N 0,0
25.05.2018 14:00:00 14,9 9,7 24 13 - - NNW 0,0
25.05.2018 13:00:00 14,5 9,8 22 12 - - NNW 0,0
25.05.2018 12:00:00 13,6 9,7 18 10 - - NNW 0,0
25.05.2018 11:00:00 13,4 9,3 22 12 - - NNW 0,0
25.05.2018 10:00:00 13,8 9,4 21 11 - - N 0,0
25.05.2018 09:00:00 13,6 9,9 21 11 - - N 0,0
25.05.2018 08:00:00 11,0 8,8 24 13 - - N 0,0
25.05.2018 07:00:00 10,2 8,8 22 12 - - N 0,0
25.05.2018 06:00:00 10,0 9,6 15 8 - - N 0,0
25.05.2018 05:00:00 9,8 9,5 18 10 - - N 0,0
25.05.2018 04:00:00 7,3 6,8 2 1 - - NW 0,0
25.05.2018 03:00:00 6,7 5,7 2 1 - - N 0,0
25.05.2018 02:00:00 8,4 7,4 2 1 - - N 0,0
25.05.2018 01:00:00 9,0 7,5 9 5 - - NNW 0,0
25.05.2018 00:00:00 9,5 7,8 9 5 - - NNW 0,0
24.05.2018 23:00:00 10,2 6,2 4 2 - - E 0,0
24.05.2018 22:00:00 12,3 6,6 8 4 - - NW 0,0
24.05.2018 21:00:00 16,4 7,9 13 7 - - NNE 0,0
24.05.2018 20:00:00 18,5 8,7 18 10 - - N 0,0
24.05.2018 19:00:00 20,1 9,9 18 10 - - N 0,0
24.05.2018 18:00:00 22,4 8,7 5 3 - - E 0,0
24.05.2018 17:00:00 21,6 6,7 13 7 - - SSE 0,0
24.05.2018 16:00:00 22,2 9,2 13 7 - - S 0,0
24.05.2018 15:00:00 21,7 9,3 13 7 - - S 0,0
24.05.2018 14:00:00 21,3 8,9 9 5 - - SW 0,0
24.05.2018 13:00:00 20,0 8,0 13 7 - - SSW 0,0
24.05.2018 12:00:00 19,2 7,5 13 7 - - SSE 0,0
24.05.2018 11:00:00 17,6 8,3 13 7 - - SSE 0,0
24.05.2018 10:00:00 16,6 9,4 15 8 - - SSE 0,0
24.05.2018 09:00:00 15,4 10,7 11 6 - - SSE 0,0
24.05.2018 08:00:00 11,1 10,7 8 4 - - SSW 0,0
24.05.2018 07:00:00 5,9 5,8 4 2 - - SE 0,0
24.05.2018 06:00:00 3,9 3,8 4 2 - - ESE 0,0
24.05.2018 05:00:00 3,8 3,6 4 2 - - SE 0,0
24.05.2018 04:00:00 3,7 3,3 2 1 - - E 0,0
24.05.2018 03:00:00 4,2 3,9 5 3 - - SE 0,0
24.05.2018 02:00:00 3,3 2,3 2 1 - - E 0,0
24.05.2018 01:00:00 4,8 3,3 2 1 - - ENE 0,0
24.05.2018 00:00:00 7,0 4,9 2 1 - - SW 0,0
23.05.2018 23:00:00 8,9 6,8 8 4 - - SE 0,0
23.05.2018 22:00:00 9,4 7,0 11 6 - - SE 0,0
23.05.2018 21:00:00 10,8 7,1 16 9 - - ESE 0,0
23.05.2018 20:00:00 11,9 7,0 16 9 - - ESE 0,0
23.05.2018 19:00:00 13,4 8,1 26 14 - - SE 0,0
23.05.2018 18:00:00 15,0 8,3 22 12 - - SE 0,0
23.05.2018 17:00:00 16,2 7,6 13 7 - - SSE 0,0
23.05.2018 16:00:00 16,5 9,1 13 7 - - S 0,0
23.05.2018 15:00:00 16,0 8,7 13 7 - - SSE 0,0
23.05.2018 14:00:00 15,4 8,9 11 6 - - SSW 0,0
23.05.2018 13:00:00 14,5 8,7 11 6 - - S 0,0
23.05.2018 12:00:00 13,5 8,4 13 7 - - SE 0,0
23.05.2018 11:00:00 12,2 7,6 15 8 - - SSE 0,0
23.05.2018 10:00:00 11,5 7,8 11 6 - - SSE 0,0
23.05.2018 09:00:00 9,9 6,9 9 5 - - SSE 0,0
23.05.2018 08:00:00 8,9 6,4 13 7 - - SSE 0,0
23.05.2018 07:00:00 8,2 6,1 11 6 - - SE 0,0
23.05.2018 06:00:00 7,8 5,7 9 5 - - SE 0,0
23.05.2018 05:00:00 7,6 5,3 13 7 - - ESE 0,0
23.05.2018 04:00:00 7,5 5,3 13 7 - - ESE 0,0
23.05.2018 03:00:00 7,3 5,4 5 3 - - SSE 0,0
23.05.2018 02:00:00 7,6 5,1 9 5 - - ESE 0,0
23.05.2018 01:00:00 7,6 4,7 9 5 - - SE 0,0
23.05.2018 00:00:00 7,7 4,8 8 4 - - ESE 0,0
22.05.2018 23:00:00 7,8 4,3 5 3 - - SE 0,0
22.05.2018 22:00:00 7,9 4,3 9 5 - - SE 0,0
22.05.2018 21:00:00 8,4 4,5 11 6 - - SE 0,0
22.05.2018 20:00:00 8,8 4,9 11 6 - - SE 0,0
22.05.2018 19:00:00 9,3 5,2 16 9 - - E 0,0
22.05.2018 18:00:00 10,1 5,0 16 9 - - ESE 0,0
22.05.2018 17:00:00 11,2 5,2 15 8 - - E 0,0
22.05.2018 16:00:00 11,2 5,7 13 7 - - ENE 0,0
22.05.2018 15:00:00 10,8 5,6 16 9 - - ENE 0,0
22.05.2018 14:00:00 10,5 5,3 13 7 - - E 0,0
22.05.2018 13:00:00 10,5 6,1 18 10 - - E 0,0
22.05.2018 12:00:00 10,2 5,2 16 9 - - ENE 0,0
22.05.2018 11:00:00 9,8 5,3 16 9 - - ENE 0,0
22.05.2018 10:00:00 8,8 5,6 15 8 - - NE 0,0
22.05.2018 09:00:00 8,1 5,0 21 11 - - NE 0,0
22.05.2018 08:00:00 7,8 5,3 18 10 - - NNE 0,0
22.05.2018 07:00:00 6,6 5,4 16 9 - - N 0,0
22.05.2018 06:00:00 5,6 5,1 11 6 - - N 0,0
22.05.2018 05:00:00 5,8 5,2 8 4 - - NNW 0,0
22.05.2018 04:00:00 5,8 5,3 13 7 - - NNW 0,0
22.05.2018 03:00:00 5,7 5,3 11 6 - - N 0,0
22.05.2018 02:00:00 5,4 5,0 8 4 - - NNW 0,0
22.05.2018 01:00:00 5,4 4,9 5 3 - - NW 0,0
22.05.2018 00:00:00 5,5 5,0 9 5 - - NNW 0,4
21.05.2018 23:00:00 5,7 5,2 9 5 - - NNW 0,2
21.05.2018 22:00:00 5,9 5,3 15 8 - - N 0,0
21.05.2018 21:00:00 6,1 5,5 18 10 - - N 0,2
21.05.2018 20:00:00 6,2 5,5 21 11 - - NNW 1,4
21.05.2018 19:00:00 6,4 5,9 22 12 - - NNW 1,4
21.05.2018 18:00:00 7,0 6,5 22 12 - - NNW 0,2
21.05.2018 17:00:00 7,1 6,5 22 12 - - N 0,2
21.05.2018 16:00:00 7,3 6,8 28 15 - - N 0,2
21.05.2018 15:00:00 8,0 7,5 28 15 - - N 0,6
21.05.2018 14:00:00 8,9 8,4 24 13 - - N 0,8
21.05.2018 13:00:00 9,5 9,1 24 13 - - N 0,4
21.05.2018 12:00:00 9,6 9,2 21 11 - - N 0,2
21.05.2018 11:00:00 9,8 9,5 16 9 - - N 0,4
21.05.2018 10:00:00 9,8 9,5 15 8 - - N 0,4
21.05.2018 09:00:00 9,5 9,2 16 9 - - NNW 0,6
21.05.2018 08:00:00 9,1 8,9 16 9 - - NNW 1,0
21.05.2018 07:00:00 8,9 8,7 15 8 - - NNW 1,6
21.05.2018 06:00:00 8,9 8,7 15 8 - - NW 1,4
21.05.2018 05:00:00 8,9 8,7 15 8 - - NW 1,2
21.05.2018 04:00:00 9,2 8,9 8 4 - - N 0,8
21.05.2018 03:00:00 9,7 9,1 11 6 - - NNE 0,6
21.05.2018 02:00:00 10,7 9,7 16 9 - - NNE 0,0
21.05.2018 01:00:00 11,8 10,4 11 6 - - N 0,0
21.05.2018 00:00:00 13,9 10,8 9 5 - - S 0,0
20.05.2018 23:00:00 14,6 11,0 9 5 - - SE 0,0
20.05.2018 22:00:00 14,6 11,0 2 1 - - SSE 0,0
20.05.2018 21:00:00 15,3 11,1 13 7 - - SSE 0,0
20.05.2018 20:00:00 15,6 11,1 11 6 - - S 0,0
20.05.2018 19:00:00 16,3 11,2 16 9 - - S 0,0
20.05.2018 18:00:00 17,0 11,1 15 8 - - SSW 0,0
20.05.2018 17:00:00 17,0 11,2 16 9 - - S 0,0
20.05.2018 16:00:00 17,4 11,2 22 12 - - SSW 0,0
20.05.2018 15:00:00 17,2 10,9 22 12 46 25 S 0,0
20.05.2018 14:00:00 17,9 11,6 29 16 52 28 S 0,0
20.05.2018 13:00:00 17,5 11,4 28 15 50 27 S 0,0
20.05.2018 12:00:00 17,8 11,0 34 18 46 25 S 0,0
20.05.2018 11:00:00 17,4 10,6 29 16 46 25 S 0,0
20.05.2018 10:00:00 16,2 10,0 26 14 - - S 0,0
20.05.2018 09:00:00 14,0 9,1 28 15 - - SSE 0,0

tt = Température de l'air
td = dewpoint
ff = Vitesse du vent
fx = gusts
dd = Direction du vent
rr = Quantités de précipitations

stations d'obs. à proximité